Time;durP1;ratioP1;P1;durP2;ratioP2;P2;SDS_P1;SDS_P2;PMS_P1;PMS_P2;Temp;Humidity;BMP_temperature;BMP_pressure;BME280_temperature;BME280_humidity;BME280_pressure;Samples;Min_cycle;Max_cycle;Signal;HPM_P1;HPM_P2
2023/01/11 00:04:02;;;;;;;;;;;4.80;99.90;;;;;;20852299;28;20288;-78
2023/01/11 00:14:03;;;;;;;5.23;1.30;;;4.70;99.90;;;;;;20849410;28;19909;-78
2023/01/11 00:24:04;;;;;;;3.42;0.93;;;4.80;99.90;;;;;;20842114;28;20555;-78
2023/01/11 00:34:05;;;;;;;1.83;1.10;;;4.60;99.90;;;;;;20838001;28;20052;-78
2023/01/11 00:54:27;;;;;;;3.80;0.80;;;4.70;99.90;;;;;;20844062;28;19909;-79
2023/01/11 01:04:29;;;;;;;;;;;4.80;99.90;;;;;;20848547;28;20032;-78
2023/01/11 01:14:32;;;;;;;1.70;0.73;;;4.80;99.90;;;;;;20852363;28;19909;-78
2023/01/11 01:24:33;;;;;;;4.53;1.00;;;4.80;99.90;;;;;;20853857;28;20026;-78
2023/01/11 01:34:36;;;;;;;1.10;0.80;;;4.90;99.90;;;;;;20846644;28;20476;-77
2023/01/11 01:44:49;;;;;;;6.03;1.08;;;4.80;99.90;;;;;;20842710;28;20026;-78
2023/01/11 01:54:51;;;;;;;1.35;0.90;;;4.70;99.90;;;;;;20835358;28;20025;-78
2023/01/11 02:04:56;;;;;;;4.25;1.10;;;4.70;99.90;;;;;;20852382;28;20420;-78
2023/01/11 02:15:00;;;;;;;2.83;1.40;;;4.70;99.90;;;;;;20850725;28;20037;-78
2023/01/11 02:25:20;;;;;;;4.70;1.48;;;4.60;99.90;;;;;;20842327;28;20048;-78
2023/01/11 02:35:55;;;;;;;4.95;2.45;;;4.70;99.90;;;;;;20849437;28;20033;-78
2023/01/11 02:46:05;;;;;;;3.42;1.77;;;4.70;99.90;;;;;;20840407;28;20561;-77
2023/01/11 02:56:14;;;;;;;4.68;1.58;;;4.50;99.90;;;;;;20827400;28;20032;-78
2023/01/11 03:06:21;;;;;;;5.90;2.03;;;4.40;99.90;;;;;;20856946;28;20411;-78
2023/01/11 03:16:28;;;;;;;3.03;1.20;;;4.40;99.90;;;;;;20927479;28;20063;-78
2023/01/11 03:26:48;;;;;;;7.20;1.40;;;4.30;99.90;;;;;;20927563;28;20514;-78
2023/01/11 03:36:56;;;;;;;2.03;0.90;;;4.20;99.90;;;;;;20915042;28;20377;-77
2023/01/11 03:47:05;;;;;;;1.02;0.93;;;4.10;99.90;;;;;;20841759;28;20073;-78
2023/01/11 03:57:26;;;;;;;1.67;0.80;;;4.40;99.90;;;;;;20831444;28;20083;-77
2023/01/11 04:07:27;;;;;;;;;;;4.50;99.90;;;;;;20827854;28;20049;-78
2023/01/11 04:17:28;;;;;;;2.33;1.25;;;4.70;99.90;;;;;;20763623;28;19910;-79
2023/01/11 04:27:29;;;;;;;1.33;0.50;;;4.70;99.90;;;;;;20795334;28;20036;-77
2023/01/11 04:37:30;;;;;;;2.45;0.70;;;4.70;99.90;;;;;;20802587;28;20029;-78
2023/01/11 04:47:31;;;;;;;2.40;0.90;;;4.70;99.90;;;;;;20781366;28;20595;-78
2023/01/11 04:57:32;;;;;;;0.80;0.80;;;4.70;99.90;;;;;;20866381;28;20039;-77
2023/01/11 05:07:34;;;;;;;0.88;0.70;;;4.70;99.90;;;;;;20870665;28;20033;-78
2023/01/11 05:17:35;;;;;;;3.05;0.95;;;4.70;99.90;;;;;;20841007;28;20060;-78
2023/01/11 05:27:36;;;;;;;2.45;1.02;;;4.60;99.90;;;;;;20844330;28;20541;-78
2023/01/11 05:37:37;;;;;;;2.20;1.38;;;4.70;99.90;;;;;;20846022;28;20038;-79
2023/01/11 05:47:38;;;;;;;;;;;4.70;99.90;;;;;;20849602;28;20101;-78
2023/01/11 05:57:45;;;;;;;2.20;1.67;;;4.80;99.90;;;;;;20854233;28;19909;-78
2023/01/11 06:07:46;;;;;;;4.50;2.10;;;4.70;99.90;;;;;;20862615;28;20034;-78
2023/01/11 06:17:47;;;;;;;9.48;2.58;;;4.70;99.90;;;;;;20830210;28;20109;-79
2023/01/11 06:27:49;;;;;;;9.85;2.85;;;4.60;99.90;;;;;;20795083;28;20092;-78
2023/01/11 06:37:50;;;;;;;2.08;1.63;;;4.60;99.90;;;;;;20809743;28;20030;-78
2023/01/11 06:47:51;;;;;;;3.30;1.30;;;4.50;99.90;;;;;;20824488;28;20021;-78
2023/01/11 06:57:52;;;;;;;19.95;7.88;;;4.70;99.90;;;;;;20814869;28;20041;-79
2023/01/11 07:07:54;;;;;;;3.42;1.83;;;4.80;99.90;;;;;;20819945;28;20507;-78
2023/01/11 07:17:56;;;;;;;;;;;4.80;99.90;;;;;;20806710;28;20033;-78
2023/01/11 07:27:58;;;;;;;;;;;4.80;99.90;;;;;;20800509;28;19923;-78
2023/01/11 07:38:00;;;;;;;3.15;1.25;;;4.90;99.90;;;;;;20806188;28;19909;-78
2023/01/11 07:48:02;;;;;;;;;;;4.90;99.90;;;;;;20803375;28;20044;-78
2023/01/11 07:58:03;;;;;;;11.65;5.20;;;5.10;99.90;;;;;;20776498;28;19913;-79
2023/01/11 08:08:04;;;;;;;;;;;5.20;99.90;;;;;;20730812;28;20493;-78
2023/01/11 08:18:06;;;;;;;7.72;3.83;;;5.20;99.90;;;;;;20764892;28;19909;-79
2023/01/11 08:28:09;;;;;;;5.97;2.25;;;5.30;99.90;;;;;;20839290;28;20110;-77
2023/01/11 08:38:11;;;;;;;6.55;3.88;;;5.50;99.90;;;;;;20842112;28;20064;-78
2023/01/11 08:48:14;;;;;;;;;;;5.70;99.90;;;;;;20873522;28;20044;-80
2023/01/11 08:58:15;;;;;;;5.70;2.40;;;5.70;99.90;;;;;;20906855;28;19999;-78
2023/01/11 09:08:18;;;;;;;7.55;2.13;;;5.90;99.90;;;;;;20863212;28;20046;-77
2023/01/11 09:18:19;;;;;;;7.18;2.53;;;5.90;99.90;;;;;;20775290;28;20038;-78
2023/01/11 09:28:21;;;;;;;9.00;2.40;;;5.80;99.90;;;;;;20793477;28;20033;-78
2023/01/11 09:38:25;;;;;;;;;;;5.90;99.90;;;;;;20796281;28;20034;-78
2023/01/11 09:48:43;;;;;;;3.42;2.10;;;5.90;99.90;;;;;;20783819;28;19939;-78
2023/01/11 09:59:08;;;;;;;10.60;2.95;;;5.90;99.90;;;;;;20772092;28;20084;-77
2023/01/11 10:09:29;;;;;;;6.60;2.83;;;6.00;99.90;;;;;;20840068;28;20068;-78
2023/01/11 10:19:46;;;;;;;5.20;2.95;;;6.00;99.90;;;;;;20930222;28;20034;-76
2023/01/11 10:51:00;;;;;;;5.18;3.30;;;6.00;99.90;;;;;;20796210;28;20037;-77
2023/01/11 11:01:31;;;;;;;6.63;3.20;;;6.00;99.90;;;;;;20797916;28;20018;-77
2023/01/11 11:11:47;;;;;;;6.90;3.70;;;6.10;99.90;;;;;;20792081;28;20046;-76
2023/01/11 11:21:53;;;;;;;8.02;4.57;;;6.20;99.90;;;;;;20822486;28;20083;-77
2023/01/11 11:31:56;;;;;;;11.88;6.75;;;6.40;99.90;;;;;;20815334;28;20034;-76
2023/01/11 11:42:13;;;;;;;7.65;3.75;;;6.60;99.90;;;;;;20816795;28;20030;-76
2023/01/11 11:52:16;;;;;;;9.30;4.80;;;6.50;99.90;;;;;;20792259;28;20039;-76
2023/01/11 12:02:30;;;;;;;13.77;5.93;;;6.50;99.90;;;;;;20817510;28;20044;-78
2023/01/11 12:12:33;;;;;;;12.82;5.70;;;6.40;99.90;;;;;;20840685;28;20492;-78
2023/01/11 12:22:33;;;;;;;12.55;6.68;;;6.50;99.90;;;;;;20840459;28;20129;-78
2023/01/11 12:33:07;;;;;;;14.13;8.33;;;6.60;99.90;;;;;;20839277;28;20030;-76
2023/01/11 12:43:48;;;;;;;18.73;7.20;;;6.50;99.90;;;;;;20825877;28;20300;-77
2023/01/11 12:54:12;;;;;;;13.82;6.15;;;6.60;99.90;;;;;;20759530;28;20042;-78
2023/01/11 13:04:31;;;;;;;13.23;7.80;;;6.80;99.90;;;;;;20766544;28;20057;-78
2023/01/11 13:14:42;;;;;;;15.80;6.78;;;6.80;99.90;;;;;;20809922;28;20049;-77
2023/01/11 13:24:46;;;;;;;13.45;6.75;;;6.80;99.90;;;;;;20802104;28;20480;-77
2023/01/11 13:34:56;;;;;;;10.93;5.95;;;6.80;99.90;;;;;;20800670;28;20032;-77
2023/01/11 13:45:05;;;;;;;11.50;6.63;;;6.90;99.90;;;;;;20829165;28;20504;-76
2023/01/11 13:55:29;;;;;;;10.65;5.85;;;6.80;99.90;;;;;;20794512;28;20022;-76
2023/01/11 14:05:46;;;;;;;19.25;9.52;;;6.90;99.90;;;;;;20804240;28;20120;-76
2023/01/11 14:15:58;;;;;;;15.80;7.07;;;7.00;99.90;;;;;;20796486;28;20030;-76
2023/01/11 14:26:20;;;;;;;15.13;7.20;;;7.20;99.90;;;;;;20823553;28;20033;-77
2023/01/11 14:37:07;;;;;;;20.65;7.57;;;7.30;99.90;;;;;;20823822;28;20098;-77
2023/01/11 14:47:33;;;;;;;19.73;7.90;;;7.50;99.90;;;;;;20819343;28;20053;-76
2023/01/11 14:57:53;;;;;;;16.88;6.70;;;7.70;99.90;;;;;;20830830;28;20036;-77
2023/01/11 15:08:32;;;;;;;10.20;5.88;;;7.90;99.90;;;;;;20823613;28;20041;-77
2023/01/11 15:18:43;;;;;;;3.30;1.67;;;8.00;99.90;;;;;;20803789;28;20425;-77
2023/01/11 15:28:56;;;;;;;1.53;0.97;;;8.50;99.90;;;;;;20753489;28;20412;-77
2023/01/11 15:38:57;;;;;;;2.72;0.73;;;8.70;99.90;;;;;;20803586;28;20049;-77
2023/01/11 15:49:22;;;;;;;2.10;0.43;;;8.70;99.90;;;;;;20800355;28;20041;-77
2023/01/11 15:59:51;;;;;;;2.80;0.88;;;8.80;99.90;;;;;;20813828;28;20029;-78
2023/01/11 16:10:26;;;;;;;2.42;0.70;;;8.60;99.90;;;;;;20818889;28;20025;-77
2023/01/11 16:20:27;;;;;;;1.88;0.60;;;8.40;99.90;;;;;;20795787;28;20061;-77
2023/01/11 16:30:29;;;;;;;4.63;1.35;;;8.30;99.90;;;;;;20810350;28;20029;-77
2023/01/11 16:40:33;;;;;;;4.97;1.80;;;8.20;99.90;;;;;;20812819;28;20026;-76
2023/01/11 16:50:34;;;;;;;3.35;1.42;;;8.10;99.90;;;;;;20826826;28;20100;-77
2023/01/11 17:00:38;;;;;;;2.38;1.08;;;8.00;99.90;;;;;;20820290;28;20560;-77
2023/01/11 17:10:40;;;;;;;5.90;1.25;;;7.90;99.90;;;;;;20812605;28;20063;-77
2023/01/11 17:20:42;;;;;;;8.43;1.35;;;7.90;99.90;;;;;;20826213;28;20064;-77
2023/01/11 17:30:48;;;;;;;5.60;1.75;;;7.80;99.90;;;;;;20857401;28;20025;-76
2023/01/11 17:40:55;;;;;;;8.55;1.33;;;7.90;99.90;;;;;;20774683;28;20026;-77
2023/01/11 17:50:58;;;;;;;1.05;0.80;;;7.80;99.90;;;;;;20781792;28;20561;-76
2023/01/11 18:01:06;;;;;;;2.83;0.52;;;7.90;99.90;;;;;;20800966;28;20026;-77
2023/01/11 18:11:08;;;;;;;1.13;0.70;;;7.90;99.90;;;;;;20808536;28;20029;-78
2023/01/11 18:21:31;;;;;;;4.22;1.27;;;7.60;99.90;;;;;;20809979;28;20041;-76
2023/01/11 18:31:32;;;;;;;7.20;1.35;;;7.50;99.90;;;;;;20810561;28;20030;-77
2023/01/11 18:51:54;;;;;;;9.13;2.00;;;7.50;99.90;;;;;;20800972;28;20033;-76
2023/01/11 19:02:18;;;;;;;4.25;1.15;;;7.50;99.90;;;;;;20813936;28;20096;-77
2023/01/11 19:12:20;;;;;;;7.75;3.45;;;7.50;99.90;;;;;;20804684;28;20551;-77
2023/01/11 19:22:22;;;;;;;10.05;2.80;;;7.50;99.90;;;;;;20829302;28;20057;-78
2023/01/11 19:32:24;;;;;;;6.85;1.65;;;7.50;99.90;;;;;;20826744;28;20017;-77
2023/01/11 19:42:28;;;;;;;2.40;1.43;;;7.40;99.90;;;;;;20782149;28;20112;-77
2023/01/11 19:52:28;;;;;;;5.93;1.45;;;7.50;99.90;;;;;;20797670;28;20048;-77
2023/01/11 20:02:29;;;;;;;13.32;3.30;;;7.40;99.90;;;;;;20800649;28;20025;-77
2023/01/11 20:12:30;;;;;;;14.97;6.03;;;7.30;99.90;;;;;;20796906;28;20405;-77
2023/01/11 20:22:32;;;;;;;11.27;3.00;;;7.10;99.90;;;;;;20794525;28;20322;-77
2023/01/11 20:32:34;;;;;;;7.68;2.03;;;7.00;99.90;;;;;;20838671;28;20283;-77
2023/01/11 20:42:35;;;;;;;8.23;2.70;;;6.90;99.90;;;;;;20829576;28;20496;-78
2023/01/11 20:52:36;;;;;;;8.60;2.35;;;6.80;99.90;;;;;;20809600;28;20053;-76
2023/01/11 21:02:39;;;;;;;15.27;2.35;;;6.70;99.90;;;;;;20830642;28;20033;-76
2023/01/11 21:12:40;;;;;;;16.05;2.80;;;6.80;99.90;;;;;;20823681;28;20035;-78
2023/01/11 21:22:40;;;;;;;11.53;2.20;;;6.80;99.90;;;;;;20799040;28;20116;-78
2023/01/11 21:32:41;;;;;;;11.93;2.83;;;6.80;99.90;;;;;;20827911;28;20272;-78
2023/01/11 21:42:42;;;;;;;;;;;6.70;99.90;;;;;;20806073;28;20026;-77
2023/01/11 21:52:43;;;;;;;5.63;2.33;;;6.60;99.90;;;;;;20802395;28;19932;-77
2023/01/11 22:02:43;;;;;;;;;;;6.60;99.90;;;;;;20772543;28;20285;-77
2023/01/11 22:12:45;;;;;;;14.32;3.50;;;6.40;99.90;;;;;;20811206;28;19909;-77
2023/01/11 22:22:46;;;;;;;13.15;3.95;;;6.30;99.90;;;;;;20836021;28;20029;-77
2023/01/11 22:32:48;;;;;;;7.13;2.42;;;6.30;99.90;;;;;;20827155;28;20037;-77
2023/01/11 22:42:50;;;;;;;;;;;6.40;99.90;;;;;;20831882;28;20033;-78
2023/01/11 22:52:51;;;;;;;6.73;1.90;;;6.30;99.90;;;;;;20834971;28;20000;-77
2023/01/11 23:02:52;;;;;;;3.60;1.23;;;6.40;99.90;;;;;;20826478;28;20033;-77
2023/01/11 23:23:12;;;;;;;8.07;1.40;;;6.30;99.90;;;;;;20803055;28;19920;-77
2023/01/11 23:33:13;;;;;;;;;;;6.20;99.90;;;;;;20817349;28;20033;-77
2023/01/11 23:43:15;;;;;;;8.07;1.67;;;6.20;99.90;;;;;;20829598;28;19996;-77
2023/01/11 23:53:16;;;;;;;7.60;1.77;;;6.20;99.90;;;;;;20834533;28;20558;-78
